Time;durP1;ratioP1;P1;durP2;ratioP2;P2;SDS_P1;SDS_P2;PMS_P1;PMS_P2;Temp;Humidity;BMP_temperature;BMP_pressure;BME280_temperature;BME280_humidity;BME280_pressure;Samples;Min_cycle;Max_cycle;Signal;HPM_P1;HPM_P2
2021/03/06 00:00:43;;;;;;;0.10;0.10;;;;;;;1.65;51.12;102190.34;6224724;23;20005;-72
2021/03/06 00:03:08;;;;;;;0.10;0.10;;;;;;;1.60;50.99;102182.75;6198709;23;20095;-72
2021/03/06 00:05:34;;;;;;;0.10;0.10;;;;;;;1.48;51.65;102167.88;6194736;23;20004;-75
2021/03/06 00:07:59;;;;;;;0.40;0.40;;;;;;;1.45;51.70;102179.00;6226173;23;20004;-77
2021/03/06 00:10:25;;;;;;;0.40;0.40;;;;;;;1.43;51.21;102179.16;6196105;23;20064;-77
2021/03/06 00:12:53;;;;;;;0.38;0.30;;;;;;;1.44;51.58;102183.53;6227471;23;20004;-76
2021/03/06 00:15:28;;;;;;;0.45;0.38;;;;;;;1.44;51.84;102186.22;6193843;23;20000;-76
2021/03/06 00:17:56;;;;;;;0.20;0.17;;;;;;;1.41;51.73;102178.47;6225896;23;20004;-76
2021/03/06 00:20:24;;;;;;;0.45;0.20;;;;;;;1.38;51.44;102182.31;6199581;23;20020;-76
2021/03/06 00:22:50;;;;;;;0.10;0.10;;;;;;;1.37;51.63;102183.34;6198113;23;20019;-77
2021/03/06 00:25:18;;;;;;;0.40;0.25;;;;;;;1.36;52.14;102181.66;6233162;23;20028;-75
2021/03/06 00:27:43;;;;;;;0.13;0.10;;;;;;;1.33;51.85;102181.13;6210479;23;20008;-76
2021/03/06 00:30:12;;;;;;;0.10;0.10;;;;;;;1.31;52.43;102180.44;6233980;23;20019;-75
2021/03/06 00:32:38;;;;;;;0.30;0.20;;;;;;;1.28;52.03;102184.31;6229651;23;20087;-76
2021/03/06 00:35:11;;;;;;;0.30;0.10;;;;;;;1.26;52.51;102186.31;6228501;23;20008;-76
2021/03/06 00:37:37;;;;;;;0.10;0.10;;;;;;;1.22;52.43;102184.94;6198805;23;20004;-76
2021/03/06 00:40:08;;;;;;;0.15;0.15;;;;;;;1.19;52.73;102186.09;6200525;23;20047;-76
2021/03/06 00:42:34;;;;;;;0.30;0.25;;;;;;;1.14;52.43;102183.06;6200714;23;20439;-77
2021/03/06 00:45:00;;;;;;;0.00;0.00;;;;;;;1.13;52.51;102180.53;6225690;23;20499;-76
2021/03/06 00:47:25;;;;;;;0.17;0.17;;;;;;;1.10;52.82;102183.56;6232986;22;20016;-77
2021/03/06 00:49:51;;;;;;;0.13;0.10;;;;;;;1.05;52.26;102173.22;6223918;23;20008;-76
2021/03/06 00:52:16;;;;;;;0.35;0.25;;;;;;;1.06;52.74;102176.78;6230587;23;20007;-77
2021/03/06 00:54:45;;;;;;;0.32;0.30;;;;;;;0.96;52.87;102174.19;6230883;23;20004;-76
2021/03/06 00:57:10;;;;;;;2.00;0.13;;;;;;;0.90;53.10;102169.47;6202602;23;20008;-76
2021/03/06 00:59:36;;;;;;;1.58;0.50;;;;;;;0.86;53.22;102180.56;6205177;23;20090;-77
2021/03/06 01:02:01;;;;;;;0.77;0.20;;;;;;;0.85;52.75;102178.03;6201177;23;20054;-76
2021/03/06 01:04:29;;;;;;;0.30;0.20;;;;;;;0.93;53.57;102190.69;6228874;23;20000;-76
2021/03/06 01:06:57;;;;;;;0.35;0.30;;;;;;;0.90;53.13;102193.69;6224135;23;20031;-75
2021/03/06 01:09:23;;;;;;;0.22;0.22;;;;;;;0.83;53.82;102175.50;6227219;23;20011;-76
2021/03/06 01:11:48;;;;;;;0.40;0.40;;;;;;;0.85;53.57;102178.03;6230145;23;20466;-76
2021/03/06 01:14:16;;;;;;;2.20;0.20;;;;;;;0.80;53.66;102175.78;6195006;23;20008;-76
2021/03/06 01:16:42;;;;;;;0.30;0.30;;;;;;;0.70;53.63;102164.25;6229770;23;20004;-76
2021/03/06 01:19:08;;;;;;;0.30;0.30;;;;;;;0.74;53.46;102171.03;6225808;23;20031;-77
2021/03/06 01:21:34;;;;;;;0.40;0.40;;;;;;;0.79;54.21;102173.25;6181027;23;20028;-76
2021/03/06 01:23:59;;;;;;;0.43;0.40;;;;;;;0.74;54.26;102159.44;6223189;23;20008;-77
2021/03/06 01:26:28;;;;;;;1.38;0.40;;;;;;;0.72;54.49;102164.97;6256865;23;20030;-75
2021/03/06 01:28:53;;;;;;;0.77;0.30;;;;;;;0.75;54.09;102161.97;6247941;23;20373;-76
2021/03/06 01:31:21;;;;;;;0.38;0.38;;;;;;;0.77;54.51;102159.09;6226057;23;20004;-76
2021/03/06 01:33:49;;;;;;;0.47;0.45;;;;;;;0.79;54.31;102152.56;6228395;23;20078;-76
2021/03/06 01:36:14;;;;;;;0.90;0.30;;;;;;;0.85;54.69;102161.84;6248828;23;20011;-75
2021/03/06 01:38:40;;;;;;;1.05;0.45;;;;;;;0.92;54.26;102160.22;6224399;23;20012;-76
2021/03/06 01:41:05;;;;;;;0.20;0.20;;;;;;;0.99;53.98;102157.72;6250531;23;20011;-77
2021/03/06 01:43:32;;;;;;;0.38;0.38;;;;;;;1.00;54.75;102148.63;6254571;23;20011;-76
2021/03/06 01:45:58;;;;;;;0.70;0.43;;;;;;;1.02;54.97;102146.63;6229870;23;20599;-76
2021/03/06 01:48:23;;;;;;;3.40;0.68;;;;;;;1.05;54.00;102151.69;6255226;23;20012;-75
2021/03/06 01:50:51;;;;;;;0.50;0.50;;;;;;;1.01;54.85;102145.78;6256180;23;20151;-75
2021/03/06 01:53:18;;;;;;;0.50;0.50;;;;;;;1.10;54.42;102153.91;6226170;23;20398;-76
2021/03/06 01:55:45;;;;;;;0.98;0.38;;;;;;;1.14;54.47;102155.25;6254489;23;20691;-76
2021/03/06 01:58:13;;;;;;;0.40;0.20;;;;;;;1.16;54.52;102162.19;6227568;23;20004;-74
2021/03/06 02:00:39;;;;;;;0.28;0.28;;;;;;;1.13;54.33;102154.41;6253612;23;20019;-75
2021/03/06 02:03:04;;;;;;;0.40;0.30;;;;;;;1.19;54.40;102159.16;6227562;23;20000;-75
2021/03/06 02:05:30;;;;;;;4.15;0.30;;;;;;;1.19;54.37;102166.41;6253675;23;20004;-75
2021/03/06 02:07:56;;;;;;;0.55;0.35;;;;;;;1.26;53.88;102169.31;6255465;23;20001;-73
2021/03/06 02:10:34;;;;;;;0.30;0.10;;;;;;;1.30;54.10;102165.28;6248527;23;20010;-75
2021/03/06 02:13:21;;;;;;;0.30;0.30;;;;;;;1.33;54.34;102164.94;6229671;23;20430;-75
2021/03/06 02:16:16;;;;;;;0.40;0.30;;;;;;;1.30;54.26;102157.19;6255059;23;20062;-73
2021/03/06 02:18:55;;;;;;;0.20;0.20;;;;;;;1.34;54.00;102150.47;6256787;23;20008;-75
2021/03/06 02:21:26;;;;;;;0.50;0.43;;;;;;;1.48;54.47;102163.34;6230056;23;20000;-75
2021/03/06 02:24:00;;;;;;;0.15;0.10;;;;;;;1.57;54.47;102162.34;6254183;23;20007;-75
2021/03/06 02:26:41;;;;;;;0.40;0.40;;;;;;;1.66;54.26;102159.69;6229610;23;20008;-76
2021/03/06 02:29:21;;;;;;;3.55;0.43;;;;;;;1.67;54.56;102145.19;6258391;23;20023;-76
2021/03/06 02:31:48;;;;;;;0.40;0.40;;;;;;;1.79;54.28;102153.81;6225560;23;20068;-77
2021/03/06 02:34:17;;;;;;;0.30;0.30;;;;;;;1.80;54.31;102134.75;6231529;23;20423;-76
2021/03/06 02:36:48;;;;;;;0.50;0.40;;;;;;;1.96;54.21;102143.88;6253612;23;19996;-76
2021/03/06 02:39:16;;;;;;;1.58;0.77;;;;;;;1.97;53.46;102129.38;6231714;23;20007;-76
2021/03/06 02:41:45;;;;;;;0.52;0.30;;;;;;;1.99;54.13;102127.38;6203877;23;20022;-76
2021/03/06 02:44:15;;;;;;;3.55;0.47;;;;;;;2.05;53.88;102145.59;6231634;23;20099;-76
2021/03/06 02:46:51;;;;;;;0.93;0.60;;;;;;;2.00;54.37;102138.00;6229532;23;20083;-76
2021/03/06 02:49:17;;;;;;;1.10;0.50;;;;;;;1.95;53.83;102131.41;6223771;23;20092;-75
2021/03/06 02:51:44;;;;;;;2.25;0.57;;;;;;;2.02;54.13;102140.53;6197829;23;20074;-75
2021/03/06 02:54:11;;;;;;;0.50;0.50;;;;;;;2.04;54.71;102138.50;6174897;23;20435;-75
2021/03/06 02:56:37;;;;;;;0.35;0.35;;;;;;;2.18;53.58;102148.63;6223674;23;20008;-75
2021/03/06 02:59:09;;;;;;;0.38;0.30;;;;;;;2.18;54.29;102137.84;6226814;23;20004;-77
2021/03/06 03:01:56;;;;;;;0.20;0.20;;;;;;;2.28;53.56;102153.88;6198074;23;20007;-76
2021/03/06 03:04:51;;;;;;;2.20;0.82;;;;;;;2.36;53.55;102155.72;6200057;23;20408;-76
2021/03/06 03:07:27;;;;;;;0.52;0.45;;;;;;;2.27;54.03;102136.81;6199539;23;20027;-76
2021/03/06 03:10:01;;;;;;;0.40;0.40;;;;;;;2.34;53.62;102130.75;6221697;23;20004;-76
2021/03/06 03:12:36;;;;;;;2.37;0.40;;;;;;;2.46;53.41;102148.28;6225557;23;20039;-76
2021/03/06 03:15:22;;;;;;;0.65;0.43;;;;;;;2.47;53.47;102152.69;6198208;23;20008;-76
2021/03/06 03:17:51;;;;;;;0.40;0.40;;;;;;;2.47;55.01;102147.28;6225525;23;20424;-75
2021/03/06 03:20:37;;;;;;;2.05;0.60;;;;;;;2.54;53.86;102145.59;6227359;23;20011;-76
2021/03/06 03:23:15;;;;;;;5.53;1.15;;;;;;;2.55;54.72;102144.56;6197371;23;20040;-76
2021/03/06 03:25:42;;;;;;;1.15;0.70;;;;;;;2.55;54.17;102147.25;6199767;23;20116;-76
2021/03/06 03:28:09;;;;;;;1.40;0.70;;;;;;;2.58;54.55;102155.00;6197336;23;20032;-76
2021/03/06 03:30:36;;;;;;;1.38;0.55;;;;;;;2.56;54.61;102140.03;6227174;23;20000;-76
2021/03/06 03:33:07;;;;;;;0.65;0.65;;;;;;;2.57;55.19;102144.38;6224153;23;20016;-75
2021/03/06 03:35:47;;;;;;;1.45;0.88;;;;;;;2.57;54.62;102142.53;6197658;23;20005;-76
2021/03/06 03:38:20;;;;;;;0.77;0.57;;;;;;;2.45;54.65;102125.00;6197789;23;20416;-75
2021/03/06 03:41:09;;;;;;;3.08;0.77;;;;;;;2.47;54.97;102125.69;6225420;23;20016;-76
2021/03/06 03:43:39;;;;;;;1.10;0.50;;;;;;;2.40;55.41;102113.88;6199806;23;20032;-74
2021/03/06 03:46:25;;;;;;;0.50;0.50;;;;;;;2.49;54.50;102134.44;6198999;23;20004;-75
2021/03/06 03:48:53;;;;;;;0.68;0.40;;;;;;;2.57;54.39;102147.94;6239686;22;20008;-76
2021/03/06 03:51:19;;;;;;;0.55;0.50;;;;;;;2.53;55.00;102138.50;6227136;23;20063;-75
2021/03/06 03:53:44;;;;;;;5.10;0.70;;;;;;;2.57;55.35;102142.53;6179942;23;20486;-74
2021/03/06 03:56:10;;;;;;;0.55;0.55;;;;;;;2.56;55.02;102140.84;6255481;23;20008;-74
2021/03/06 03:58:41;;;;;;;1.23;1.08;;;;;;;2.57;55.03;102147.94;6203678;23;20008;-74
2021/03/06 04:01:09;;;;;;;1.60;0.65;;;;;;;2.45;55.16;102133.09;6257134;23;20027;-76
2021/03/06 04:03:34;;;;;;;1.33;0.63;;;;;;;2.47;55.46;102141.88;6257188;23;20000;-75
2021/03/06 04:06:06;;;;;;;0.90;0.77;;;;;;;2.50;55.33;102146.06;6255843;22;20015;-75
2021/03/06 04:08:32;;;;;;;0.40;0.40;;;;;;;2.53;55.23;102148.47;6252908;23;20064;-76
2021/03/06 04:10:57;;;;;;;0.50;0.43;;;;;;;2.53;55.89;102152.00;6256193;23;20024;-77
2021/03/06 04:13:25;;;;;;;5.10;1.25;;;;;;;2.44;56.33;102126.84;6229313;23;20042;-76
2021/03/06 04:15:50;;;;;;;0.75;0.75;;;;;;;2.52;55.77;102158.41;6254681;23;20054;-76
2021/03/06 04:18:16;;;;;;;6.38;0.70;;;;;;;2.51;56.02;102145.94;6203523;23;20008;-74
2021/03/06 04:20:41;;;;;;;0.47;0.40;;;;;;;2.50;55.46;102146.94;6201849;23;20079;-75
2021/03/06 04:23:07;;;;;;;1.15;0.68;;;;;;;2.50;55.58;102144.25;6256070;23;20000;-75
2021/03/06 04:25:37;;;;;;;0.70;0.70;;;;;;;2.50;56.50;102152.34;6226080;23;20312;-75
2021/03/06 04:28:02;;;;;;;2.10;0.88;;;;;;;2.43;56.41;102145.94;6229886;23;20004;-75
2021/03/06 04:30:28;;;;;;;0.70;0.70;;;;;;;2.46;56.48;102151.00;6227452;23;20034;-75
2021/03/06 04:32:54;;;;;;;0.70;0.43;;;;;;;2.45;56.44;102146.59;6203201;23;20012;-76
2021/03/06 04:35:19;;;;;;;0.60;0.60;;;;;;;2.45;56.05;102149.28;6254145;23;20014;-75
2021/03/06 04:37:45;;;;;;;6.60;1.10;;;;;;;2.41;56.81;102153.34;6204002;23;20008;-74
2021/03/06 04:40:12;;;;;;;0.50;0.50;;;;;;;2.47;56.24;102152.69;6253384;23;20370;-75
2021/03/06 04:42:41;;;;;;;3.83;0.88;;;;;;;2.47;56.82;102152.69;6224600;23;20057;-75
2021/03/06 04:45:09;;;;;;;0.90;0.90;;;;;;;2.48;56.36;102154.34;6254486;23;20004;-75
2021/03/06 04:47:34;;;;;;;0.65;0.65;;;;;;;2.47;56.42;102147.28;6225481;23;20111;-75
2021/03/06 04:50:00;;;;;;;2.03;0.52;;;;;;;2.47;56.81;102141.88;6255601;22;20023;-76
2021/03/06 04:52:28;;;;;;;0.30;0.22;;;;;;;2.48;57.20;102143.56;6229648;23;20011;-75
2021/03/06 04:54:53;;;;;;;0.57;0.30;;;;;;;2.60;56.76;102158.41;6229870;23;20000;-77
2021/03/06 04:57:19;;;;;;;0.98;0.40;;;;;;;2.57;57.51;102147.09;6253813;23;20050;-75
2021/03/06 04:59:44;;;;;;;0.30;0.30;;;;;;;2.68;57.30;102164.81;6230276;23;20063;-77
2021/03/06 05:02:10;;;;;;;0.50;0.30;;;;;;;2.62;56.49;102150.97;6202847;23;20343;-75
2021/03/06 05:04:36;;;;;;;0.22;0.22;;;;;;;2.69;57.01;102155.72;6227378;23;20027;-77
2021/03/06 05:07:02;;;;;;;0.25;0.25;;;;;;;2.79;56.80;102164.47;6227328;23;20374;-75
2021/03/06 05:09:42;;;;;;;0.17;0.17;;;;;;;2.79;57.34;102154.50;6203352;23;20023;-75
2021/03/06 05:12:08;;;;;;;2.08;0.50;;;;;;;2.89;57.47;102169.66;6226157;23;19996;-76
2021/03/06 05:14:36;;;;;;;0.20;0.20;;;;;;;2.90;57.34;102169.50;6204361;23;20072;-74
2021/03/06 05:17:02;;;;;;;0.32;0.30;;;;;;;2.95;56.99;102172.53;6224098;23;20032;-76
2021/03/06 05:19:30;;;;;;;1.10;0.17;;;;;;;2.99;56.59;102177.59;6221634;23;20012;-76
2021/03/06 05:22:03;;;;;;;0.30;0.30;;;;;;;2.89;57.72;102151.59;6257730;23;20000;-77
2021/03/06 05:24:28;;;;;;;0.20;0.17;;;;;;;3.03;57.54;102173.53;6228510;23;20137;-75
2021/03/06 05:27:03;;;;;;;0.25;0.20;;;;;;;3.03;56.68;102166.25;6255026;23;20008;-74
2021/03/06 05:29:30;;;;;;;0.63;0.22;;;;;;;2.94;56.94;102165.44;6222151;23;20004;-74
2021/03/06 05:32:05;;;;;;;0.20;0.20;;;;;;;3.04;56.11;102169.78;6228311;23;20000;-77
2021/03/06 05:34:34;;;;;;;0.65;0.28;;;;;;;2.93;57.46;102152.94;6254604;23;20043;-76
2021/03/06 05:37:03;;;;;;;0.75;0.38;;;;;;;2.99;56.59;102155.97;6254580;23;20086;-76
2021/03/06 05:39:31;;;;;;;0.30;0.30;;;;;;;2.99;56.31;102164.06;6228010;23;20004;-75
2021/03/06 05:41:57;;;;;;;0.30;0.30;;;;;;;2.93;56.75;102144.81;6230051;23;20030;-76
2021/03/06 05:44:23;;;;;;;0.10;0.10;;;;;;;2.99;57.21;102155.97;6228308;23;20004;-76
2021/03/06 05:46:50;;;;;;;0.95;0.22;;;;;;;3.05;57.42;102166.06;6250499;23;20026;-76
2021/03/06 05:49:16;;;;;;;0.20;0.20;;;;;;;3.00;56.75;102152.25;6252856;22;20012;-75
2021/03/06 05:51:42;;;;;;;0.20;0.20;;;;;;;3.10;56.82;102163.72;6255081;23;20024;-76
2021/03/06 05:54:13;;;;;;;1.23;0.28;;;;;;;3.02;57.12;102150.22;6255804;23;20402;-76
2021/03/06 05:56:41;;;;;;;0.20;0.20;;;;;;;3.09;57.74;102162.03;6255506;23;20308;-76
2021/03/06 05:59:09;;;;;;;0.65;0.57;;;;;;;3.01;57.38;102148.50;6226520;23;20012;-76
2021/03/06 06:01:36;;;;;;;2.42;0.32;;;;;;;3.03;56.88;102150.03;6255683;23;20004;-76
2021/03/06 06:04:09;;;;;;;0.50;0.20;;;;;;;3.00;57.56;102152.25;6221730;23;20008;-74
2021/03/06 06:06:37;;;;;;;0.45;0.30;;;;;;;3.08;57.92;102158.47;6228688;23;20018;-74
2021/03/06 06:09:05;;;;;;;0.85;0.40;;;;;;;3.04;57.16;102159.84;6254716;23;19996;-74
2021/03/06 06:11:32;;;;;;;0.60;0.38;;;;;;;3.15;57.12;102166.72;6255202;23;20007;-75
2021/03/06 06:14:02;;;;;;;1.08;0.60;;;;;;;3.08;57.18;102144.09;6254981;23;20004;-75
2021/03/06 06:16:29;;;;;;;0.60;0.50;;;;;;;3.15;58.40;102155.91;6228293;23;20008;-75
2021/03/06 06:18:59;;;;;;;0.17;0.17;;;;;;;3.15;57.25;102150.50;6221218;23;20438;-75
2021/03/06 06:21:47;;;;;;;0.35;0.20;;;;;;;3.25;56.89;102161.94;6229056;23;20032;-74
2021/03/06 06:24:23;;;;;;;0.30;0.30;;;;;;;3.27;57.07;102165.34;6226141;23;20023;-76
2021/03/06 06:26:57;;;;;;;0.15;0.15;;;;;;;3.26;57.37;102158.25;6247666;23;20004;-75
2021/03/06 06:29:44;;;;;;;0.20;0.20;;;;;;;3.28;57.33;102167.00;6221651;23;20003;-74
2021/03/06 06:32:15;;;;;;;0.35;0.35;;;;;;;3.18;57.13;102144.75;6254933;23;20011;-75
2021/03/06 06:34:42;;;;;;;0.30;0.30;;;;;;;3.28;57.81;102164.31;6221977;23;20008;-76
2021/03/06 06:37:12;;;;;;;0.55;0.28;;;;;;;3.28;57.69;102163.47;6227509;23;20039;-76
2021/03/06 06:39:49;;;;;;;0.70;0.30;;;;;;;3.35;58.38;102171.75;6250685;23;20052;-75
2021/03/06 06:42:15;;;;;;;0.10;0.10;;;;;;;3.28;57.62;102156.19;6227799;23;20008;-75
2021/03/06 06:44:53;;;;;;;0.50;0.30;;;;;;;3.24;57.08;102160.28;6227134;23;20004;-76
2021/03/06 06:47:19;;;;;;;0.60;0.40;;;;;;;3.14;58.06;102162.34;6222674;23;20085;-76
2021/03/06 06:49:53;;;;;;;1.02;0.88;;;;;;;3.00;58.89;102155.78;6203138;22;20012;-75
2021/03/06 06:52:23;;;;;;;0.30;0.20;;;;;;;2.79;58.89;102150.97;6199301;23;20071;-76
2021/03/06 06:54:58;;;;;;;0.75;0.40;;;;;;;2.82;58.56;102166.81;6199430;23;20076;-76
2021/03/06 06:57:32;;;;;;;0.43;0.30;;;;;;;2.84;58.44;102169.34;6223746;23;20060;-71
2021/03/06 07:00:08;;;;;;;1.55;0.35;;;;;;;2.71;58.73;102153.66;6222510;23;20056;-72
2021/03/06 07:02:49;;;;;;;0.30;0.22;;;;;;;2.85;59.28;102177.28;6196729;23;20009;-72
2021/03/06 07:05:35;;;;;;;1.08;0.20;;;;;;;2.80;58.91;102152.63;6223025;23;20000;-71
2021/03/06 07:08:04;;;;;;;0.10;0.10;;;;;;;2.95;59.57;102172.53;6223467;23;20006;-73
2021/03/06 07:10:40;;;;;;;0.32;0.30;;;;;;;3.02;59.59;102171.84;6226766;23;20076;-71
2021/03/06 07:13:11;;;;;;;0.47;0.20;;;;;;;2.97;59.65;102170.50;6195431;23;20015;-73
2021/03/06 07:15:38;;;;;;;1.40;0.43;;;;;;;3.07;59.42;102180.28;6190998;23;20068;-73
2021/03/06 07:18:22;;;;;;;0.32;0.32;;;;;;;3.07;58.97;102164.06;6222120;23;20012;-73
2021/03/06 07:20:53;;;;;;;0.25;0.20;;;;;;;3.14;58.95;102168.59;6221063;23;20008;-72
2021/03/06 07:23:23;;;;;;;0.20;0.10;;;;;;;3.17;58.54;102162.00;6196131;23;20004;-72
2021/03/06 07:25:59;;;;;;;0.20;0.20;;;;;;;3.19;58.45;102151.84;6195994;23;20004;-71
2021/03/06 07:28:26;;;;;;;0.22;0.22;;;;;;;3.31;58.87;102163.97;6221726;23;20008;-70
2021/03/06 07:30:54;;;;;;;0.40;0.20;;;;;;;3.46;59.33;102179.44;6196482;23;20028;-72
2021/03/06 07:33:23;;;;;;;0.17;0.17;;;;;;;3.54;59.12;102176.72;6220399;23;20010;-72
2021/03/06 07:35:56;;;;;;;0.20;0.20;;;;;;;3.57;58.62;102165.53;6197235;23;20331;-72
2021/03/06 07:38:42;;;;;;;1.80;0.40;;;;;;;3.63;59.52;102166.69;6194258;23;20043;-72
2021/03/06 07:41:08;;;;;;;0.22;0.22;;;;;;;3.84;58.76;102183.16;6193521;23;20016;-70
2021/03/06 07:43:37;;;;;;;0.28;0.20;;;;;;;3.93;58.85;102180.38;6194713;23;20035;-71
2021/03/06 07:46:13;;;;;;;0.40;0.40;;;;;;;4.16;58.42;102186.69;6195998;23;20004;-74
2021/03/06 07:48:55;;;;;;;0.20;0.20;;;;;;;4.32;57.91;102190.28;6231271;22;20016;-74
2021/03/06 07:51:22;;;;;;;0.20;0.20;;;;;;;4.49;58.38;102185.56;6254674;23;20070;-74
2021/03/06 07:53:50;;;;;;;1.15;0.70;;;;;;;4.65;58.08;102188.13;6228465;23;20012;-73
2021/03/06 07:56:15;;;;;;;0.85;0.47;;;;;;;4.91;57.64;102192.31;6203085;23;20030;-75
2021/03/06 07:58:50;;;;;;;2.33;0.47;;;;;;;5.04;57.03;102188.97;6228025;23;20028;-75
2021/03/06 08:01:32;;;;;;;0.22;0.20;;;;;;;5.04;56.62;102195.22;6227892;23;20004;-75
2021/03/06 08:04:02;;;;;;;0.30;0.30;;;;;;;4.97;56.61;102188.84;6253533;23;20061;-76
2021/03/06 08:06:31;;;;;;;0.40;0.30;;;;;;;4.95;56.63;102181.91;6226865;23;20387;-76
2021/03/06 08:09:05;;;;;;;0.85;0.40;;;;;;;5.04;57.68;102192.50;6250742;23;20011;-75
2021/03/06 08:11:43;;;;;;;0.30;0.30;;;;;;;5.15;56.97;102190.34;6224724;23;20000;-76
2021/03/06 08:14:38;;;;;;;1.25;0.50;;;;;;;5.24;56.98;102190.09;6254620;23;20000;-75
2021/03/06 08:17:40;;;;;;;;;;;;;;;;;;;;;
2021/03/06 08:20:22;;;;;;;0.50;0.45;;;;;;;5.54;57.04;102200.91;6253286;23;20039;-75
2021/03/06 08:23:17;;;;;;;0.45;0.38;;;;;;;5.76;56.89;102193.66;6256232;23;19996;-72
2021/03/06 08:25:45;;;;;;;2.38;0.45;;;;;;;6.07;56.34;102195.28;6253738;23;20039;-73
2021/03/06 08:28:25;;;;;;;0.68;0.45;;;;;;;6.52;56.24;102203.25;6224811;23;20415;-73
2021/03/06 08:30:53;;;;;;;4.60;0.57;;;;;;;6.93;56.00;102188.94;6252680;23;20082;-72
2021/03/06 08:33:19;;;;;;;0.57;0.55;;;;;;;7.73;55.89;102198.59;6250621;23;20066;-73
2021/03/06 08:35:44;;;;;;;0.32;0.30;;;;;;;9.12;56.27;102224.34;6254662;23;20012;-74
2021/03/06 08:38:36;;;;;;;3.10;0.68;;;;;;;10.46;53.74;102219.19;6250444;23;20008;-73
2021/03/06 08:41:02;;;;;;;3.13;0.50;;;;;;;11.61;51.22;102219.78;6252847;23;20079;-74
2021/03/06 08:43:29;;;;;;;1.35;0.60;;;;;;;12.52;48.86;102219.00;6221375;23;20119;-75
2021/03/06 08:46:01;;;;;;;0.50;0.40;;;;;;;12.86;47.27;102211.03;6227099;23;20008;-73
2021/03/06 08:48:26;;;;;;;0.13;0.13;;;;;;;12.92;45.88;102212.84;6227403;23;20016;-73
2021/03/06 08:50:55;;;;;;;0.30;0.20;;;;;;;12.45;44.99;102196.31;6254389;23;20126;-73
2021/03/06 08:53:20;;;;;;;0.32;0.22;;;;;;;11.91;44.48;102213.50;6224210;23;20004;-72
2021/03/06 08:55:47;;;;;;;0.52;0.40;;;;;;;11.35;44.76;102207.25;6227184;23;20367;-73
2021/03/06 08:58:18;;;;;;;0.80;0.30;;;;;;;10.88;45.36;102204.13;6252029;23;20532;-73
2021/03/06 09:00:56;;;;;;;0.73;0.50;;;;;;;10.55;44.81;102222.50;6253273;23;20015;-73
2021/03/06 09:03:26;;;;;;;0.20;0.20;;;;;;;10.38;45.94;102219.47;6226823;23;20140;-72
2021/03/06 09:05:57;;;;;;;0.55;0.43;;;;;;;10.56;46.07;102224.19;6225520;23;20004;-72
2021/03/06 09:08:25;;;;;;;3.00;0.32;;;;;;;11.14;46.87;102203.03;6251366;23;20403;-72
2021/03/06 09:10:58;;;;;;;1.05;0.40;;;;;;;12.03;45.42;102211.69;6251639;23;20056;-73
2021/03/06 09:13:26;;;;;;;1.55;0.47;;;;;;;13.28;44.45;102210.91;6251029;23;20023;-76
2021/03/06 09:15:58;;;;;;;0.55;0.55;;;;;;;14.58;42.65;102221.47;6252304;23;20015;-72
2021/03/06 09:18:26;;;;;;;1.13;0.30;;;;;;;15.43;41.91;102212.31;6252880;23;19996;-76
2021/03/06 09:21:09;;;;;;;0.30;0.22;;;;;;;15.69;38.65;102216.22;6250228;23;20007;-75
2021/03/06 09:23:40;;;;;;;0.82;0.20;;;;;;;15.48;37.64;102210.44;6250133;23;20019;-75
2021/03/06 09:26:12;;;;;;;0.43;0.28;;;;;;;15.38;38.59;102215.81;6229261;23;20008;-75
2021/03/06 09:28:40;;;;;;;0.20;0.20;;;;;;;15.55;37.20;102215.78;6255079;23;19996;-74
2021/03/06 09:31:14;;;;;;;1.98;0.43;;;;;;;15.37;37.08;102214.16;6254558;23;20433;-73
2021/03/06 09:33:40;;;;;;;0.43;0.22;;;;;;;14.93;36.11;102225.09;6253876;23;20015;-74
2021/03/06 09:36:12;;;;;;;0.43;0.30;;;;;;;14.59;36.93;102211.31;6252793;23;20004;-74
2021/03/06 09:38:45;;;;;;;0.52;0.40;;;;;;;14.09;36.91;102210.97;6251644;23;20000;-75
2021/03/06 09:41:18;;;;;;;0.50;0.30;;;;;;;13.73;37.57;102218.50;6229946;23;20011;-76
2021/03/06 09:43:48;;;;;;;0.93;0.50;;;;;;;13.22;36.70;102196.22;6229690;23;20441;-75
2021/03/06 09:46:23;;;;;;;2.95;1.00;;;;;;;13.03;37.28;102214.75;6204889;23;20011;-75
2021/03/06 09:48:49;;;;;;;2.40;0.45;;;;;;;13.07;37.08;102206.88;6222433;23;20042;-75
2021/03/06 09:51:15;;;;;;;2.15;0.50;;;;;;;13.19;36.63;102206.88;6255618;23;20004;-74
2021/03/06 09:53:53;;;;;;;1.67;0.57;;;;;;;13.35;37.18;102203.41;6253380;23;20004;-74
2021/03/06 09:56:18;;;;;;;0.40;0.40;;;;;;;13.59;36.57;102212.47;6201528;23;20645;-73
2021/03/06 09:58:44;;;;;;;3.35;0.32;;;;;;;13.92;36.11;102199.09;6225496;23;20008;-75
2021/03/06 10:01:20;;;;;;;0.60;0.60;;;;;;;15.43;35.94;102210.38;6227453;23;20054;-73
2021/03/06 10:03:49;;;;;;;1.45;0.38;;;;;;;16.39;32.15;102208.16;6223935;23;20396;-76
2021/03/06 10:06:21;;;;;;;0.30;0.30;;;;;;;16.51;31.50;102197.78;6254443;23;20006;-76
2021/03/06 10:09:07;;;;;;;1.25;0.30;;;;;;;17.18;32.00;102203.81;6254130;23;20003;-77
2021/03/06 10:11:39;;;;;;;0.93;0.20;;;;;;;18.28;32.01;102207.56;6249212;23;20082;-76
2021/03/06 10:14:06;;;;;;;0.30;0.20;;;;;;;18.93;30.55;102198.72;6254111;23;20015;-76
2021/03/06 10:17:00;;;;;;;0.70;0.30;;;;;;;20.19;27.30;102207.94;6225582;23;20026;-73
2021/03/06 10:19:31;;;;;;;0.60;0.35;;;;;;;19.42;26.22;102193.59;6228540;23;20061;-76
2021/03/06 10:22:07;;;;;;;;;;;;;;;;;;;;;
2021/03/06 10:25:02;;;;;;;0.75;0.30;;;;;;;21.40;25.48;102185.16;6252912;23;20035;-73
2021/03/06 10:27:38;;;;;;;0.10;0.08;;;;;;;21.32;25.92;102192.22;6205369;23;20004;-74
2021/03/06 10:30:17;;;;;;;0.10;0.05;;;;;;;22.03;25.44;102192.38;6228413;23;20004;-75
2021/03/06 10:32:52;;;;;;;0.30;0.20;;;;;;;22.96;23.59;102179.72;6253070;23;20075;-75
2021/03/06 10:35:38;;;;;;;0.80;0.20;;;;;;;24.04;22.95;102185.88;6222801;23;20019;-77
2021/03/06 10:38:06;;;;;;;0.20;0.10;;;;;;;23.92;21.85;102188.38;6230552;23;20079;-73
2021/03/06 10:40:56;;;;;;;0.13;0.13;;;;;;;24.87;21.69;102193.88;6222362;23;20031;-73
2021/03/06 10:43:29;;;;;;;1.10;0.45;;;;;;;25.15;18.61;102192.88;6255756;23;20336;-73
2021/03/06 10:46:23;;;;;;;0.50;0.10;;;;;;;23.59;19.05;102196.91;6227878;23;20008;-72
2021/03/06 10:49:10;;;;;;;;;;;;;;;;;;;;;
2021/03/06 10:51:52;;;;;;;0.10;0.10;;;;;;;19.57;21.75;102196.31;6254980;23;20031;-72
2021/03/06 10:54:22;;;;;;;0.55;0.20;;;;;;;18.04;23.09;102181.50;6254904;23;20431;-74
2021/03/06 10:57:03;;;;;;;1.70;0.30;;;;;;;17.05;24.03;102176.66;6221777;23;20032;-73
2021/03/06 10:59:36;;;;;;;0.75;0.10;;;;;;;16.32;25.13;102178.00;6202425;23;20027;-74
2021/03/06 11:02:02;;;;;;;0.40;0.40;;;;;;;15.96;25.86;102182.34;6229542;23;20011;-74
2021/03/06 11:04:38;;;;;;;0.10;0.10;;;;;;;16.07;26.91;102172.25;6228878;23;20008;-72
2021/03/06 11:07:06;;;;;;;3.38;0.30;;;;;;;17.47;27.29;102170.22;6221335;23;20673;-74
2021/03/06 11:09:41;;;;;;;0.20;0.10;;;;;;;18.15;25.84;102166.59;6224476;23;19996;-74
2021/03/06 11:12:17;;;;;;;1.23;0.30;;;;;;;18.41;25.41;102181.28;6273134;22;20011;-75
2021/03/06 11:14:43;;;;;;;1.00;0.30;;;;;;;18.08;25.30;102180.69;6227891;23;20319;-73
2021/03/06 11:17:16;;;;;;;0.32;0.30;;;;;;;18.07;25.12;102186.50;6225708;23;20083;-73
2021/03/06 11:19:50;;;;;;;0.30;0.10;;;;;;;19.28;25.91;102177.56;6256411;23;20039;-76
2021/03/06 11:22:15;;;;;;;0.45;0.20;;;;;;;20.80;23.36;102178.00;6203057;23;20316;-76
2021/03/06 11:24:43;;;;;;;0.85;0.22;;;;;;;22.23;22.47;102173.72;6229355;23;20011;-75
2021/03/06 11:27:11;;;;;;;1.80;0.43;;;;;;;23.60;21.92;102187.41;6255091;23;20031;-76
2021/03/06 11:29:38;;;;;;;0.45;0.20;;;;;;;23.84;20.30;102182.38;6228983;23;20403;-76
2021/03/06 11:32:07;;;;;;;0.10;0.10;;;;;;;23.03;19.99;102174.56;6227351;23;20071;-76
2021/03/06 11:34:35;;;;;;;3.28;0.47;;;;;;;21.84;21.03;102158.97;6249696;23;20012;-74
2021/03/06 11:37:03;;;;;;;0.60;0.20;;;;;;;21.44;22.25;102166.75;6227005;23;20087;-75
2021/03/06 11:39:28;;;;;;;3.10;0.40;;;;;;;21.02;21.22;102158.03;6222141;23;20091;-73
2021/03/06 11:41:54;;;;;;;1.52;0.40;;;;;;;20.07;21.09;102170.53;6248623;23;20024;-74
2021/03/06 11:44:22;;;;;;;2.65;0.30;;;;;;;19.01;22.37;102161.28;6225336;23;20008;-75
2021/03/06 11:46:50;;;;;;;0.35;0.30;;;;;;;18.31;23.10;102154.41;6225555;23;20035;-74
2021/03/06 11:49:16;;;;;;;2.17;0.68;;;;;;;18.33;23.34;102150.53;6251965;23;20036;-73
2021/03/06 11:51:41;;;;;;;2.17;0.30;;;;;;;19.58;24.21;102152.75;6251973;23;20399;-75